sensor_id;sensor_type;location;lat;lon;timestamp;pressure;altitude;pressure_sealevel;temperature;humidity
68077;BME280;54866;53.458;14.540;2023-04-08T00:00:56;101309.15;;;3.61;100.00
68077;BME280;54866;53.458;14.540;2023-04-08T00:03:26;101307.74;;;3.62;100.00
68077;BME280;54866;53.458;14.540;2023-04-08T00:05:56;101310.33;;;3.62;100.00
68077;BME280;54866;53.458;14.540;2023-04-08T00:08:25;101309.29;;;3.62;100.00
68077;BME280;54866;53.458;14.540;2023-04-08T00:10:55;101310.70;;;3.62;100.00
68077;BME280;54866;53.458;14.540;2023-04-08T00:13:24;101305.33;;;3.61;100.00
68077;BME280;54866;53.458;14.540;2023-04-08T00:15:54;101302.69;;;3.62;100.00
68077;BME280;54866;53.458;14.540;2023-04-08T00:18:24;101305.55;;;3.60;100.00
68077;BME280;54866;53.458;14.540;2023-04-08T00:20:54;101309.41;;;3.60;100.00
68077;BME280;54866;53.458;14.540;2023-04-08T00:23:24;101310.38;;;3.57;100.00
68077;BME280;54866;53.458;14.540;2023-04-08T00:25:53;101309.66;;;3.58;100.00
68077;BME280;54866;53.458;14.540;2023-04-08T00:28:23;101305.14;;;3.58;100.00
68077;BME280;54866;53.458;14.540;2023-04-08T00:30:53;101310.52;;;3.58;100.00
68077;BME280;54866;53.458;14.540;2023-04-08T00:33:22;101309.70;;;3.57;100.00
68077;BME280;54866;53.458;14.540;2023-04-08T00:35:52;101303.98;;;3.56;100.00
68077;BME280;54866;53.458;14.540;2023-04-08T00:38:22;101306.05;;;3.56;100.00
68077;BME280;54866;53.458;14.540;2023-04-08T00:40:51;101305.38;;;3.56;100.00
68077;BME280;54866;53.458;14.540;2023-04-08T00:43:21;101305.89;;;3.56;100.00
68077;BME280;54866;53.458;14.540;2023-04-08T00:45:51;101310.78;;;3.56;100.00
68077;BME280;54866;53.458;14.540;2023-04-08T00:48:20;101312.00;;;3.56;100.00
68077;BME280;54866;53.458;14.540;2023-04-08T00:50:50;101311.52;;;3.55;100.00
68077;BME280;54866;53.458;14.540;2023-04-08T00:53:20;101309.77;;;3.55;100.00
68077;BME280;54866;53.458;14.540;2023-04-08T00:55:49;101312.60;;;3.54;100.00
68077;BME280;54866;53.458;14.540;2023-04-08T00:58:19;101311.73;;;3.54;100.00
68077;BME280;54866;53.458;14.540;2023-04-08T01:00:52;101312.33;;;3.52;100.00
68077;BME280;54866;53.458;14.540;2023-04-08T01:03:29;101305.59;;;3.51;100.00
68077;BME280;54866;53.458;14.540;2023-04-08T01:06:09;101308.02;;;3.51;100.00
68077;BME280;54866;53.458;14.540;2023-04-08T01:08:41;101303.44;;;3.52;100.00
68077;BME280;54866;53.458;14.540;2023-04-08T01:11:14;101301.18;;;3.52;100.00
68077;BME280;54866;53.458;14.540;2023-04-08T01:13:44;101300.89;;;3.51;100.00
68077;BME280;54866;53.458;14.540;2023-04-08T01:16:16;101302.75;;;3.52;100.00
68077;BME280;54866;53.458;14.540;2023-04-08T01:18:48;101306.05;;;3.52;100.00
68077;BME280;54866;53.458;14.540;2023-04-08T01:21:21;101309.35;;;3.53;100.00
68077;BME280;54866;53.458;14.540;2023-04-08T01:23:58;101316.45;;;3.53;100.00
68077;BME280;54866;53.458;14.540;2023-04-08T01:26:30;101320.33;;;3.53;100.00
68077;BME280;54866;53.458;14.540;2023-04-08T01:29:01;101325.98;;;3.50;100.00
68077;BME280;54866;53.458;14.540;2023-04-08T01:31:32;101326.64;;;3.52;100.00
68077;BME280;54866;53.458;14.540;2023-04-08T01:34:02;101325.80;;;3.51;100.00
68077;BME280;54866;53.458;14.540;2023-04-08T01:36:34;101329.02;;;3.53;100.00
68077;BME280;54866;53.458;14.540;2023-04-08T01:39:06;101327.30;;;3.52;100.00
68077;BME280;54866;53.458;14.540;2023-04-08T01:41:36;101324.83;;;3.53;100.00
68077;BME280;54866;53.458;14.540;2023-04-08T01:44:06;101324.48;;;3.53;100.00
68077;BME280;54866;53.458;14.540;2023-04-08T01:46:37;101319.26;;;3.53;100.00
68077;BME280;54866;53.458;14.540;2023-04-08T01:49:07;101321.84;;;3.54;100.00
68077;BME280;54866;53.458;14.540;2023-04-08T01:51:39;101322.18;;;3.54;100.00
68077;BME280;54866;53.458;14.540;2023-04-08T01:54:09;101324.66;;;3.53;100.00
68077;BME280;54866;53.458;14.540;2023-04-08T01:56:41;101330.81;;;3.52;100.00
68077;BME280;54866;53.458;14.540;2023-04-08T01:59:15;101332.18;;;3.52;100.00
68077;BME280;54866;53.458;14.540;2023-04-08T02:01:46;101333.91;;;3.52;100.00
68077;BME280;54866;53.458;14.540;2023-04-08T02:04:17;101339.13;;;3.53;100.00
68077;BME280;54866;53.458;14.540;2023-04-08T02:06:47;101339.38;;;3.51;100.00
68077;BME280;54866;53.458;14.540;2023-04-08T02:09:17;101346.55;;;3.51;100.00
68077;BME280;54866;53.458;14.540;2023-04-08T02:11:46;101343.43;;;3.50;100.00
68077;BME280;54866;53.458;14.540;2023-04-08T02:14:16;101345.02;;;3.49;100.00
68077;BME280;54866;53.458;14.540;2023-04-08T02:16:51;101343.52;;;3.48;100.00
68077;BME280;54866;53.458;14.540;2023-04-08T02:19:27;101343.21;;;3.46;100.00
68077;BME280;54866;53.458;14.540;2023-04-08T02:21:59;101346.20;;;3.45;100.00
68077;BME280;54866;53.458;14.540;2023-04-08T02:24:30;101347.39;;;3.46;100.00
68077;BME280;54866;53.458;14.540;2023-04-08T02:27:01;101342.91;;;3.45;100.00
68077;BME280;54866;53.458;14.540;2023-04-08T02:29:32;101346.39;;;3.45;100.00
68077;BME280;54866;53.458;14.540;2023-04-08T02:32:04;101348.59;;;3.46;100.00
68077;BME280;54866;53.458;14.540;2023-04-08T02:34:35;101351.36;;;3.48;100.00
68077;BME280;54866;53.458;14.540;2023-04-08T02:37:05;101348.02;;;3.49;100.00
68077;BME280;54866;53.458;14.540;2023-04-08T02:39:35;101348.83;;;3.50;100.00
68077;BME280;54866;53.458;14.540;2023-04-08T02:42:05;101348.80;;;3.51;100.00
68077;BME280;54866;53.458;14.540;2023-04-08T02:44:35;101349.94;;;3.52;100.00
68077;BME280;54866;53.458;14.540;2023-04-08T02:47:05;101354.73;;;3.55;100.00
68077;BME280;54866;53.458;14.540;2023-04-08T02:49:34;101350.52;;;3.55;100.00
68077;BME280;54866;53.458;14.540;2023-04-08T02:52:04;101355.00;;;3.57;100.00
68077;BME280;54866;53.458;14.540;2023-04-08T02:54:34;101353.34;;;3.59;100.00
68077;BME280;54866;53.458;14.540;2023-04-08T02:57:03;101355.88;;;3.61;100.00
68077;BME280;54866;53.458;14.540;2023-04-08T02:59:33;101355.11;;;3.62;100.00
68077;BME280;54866;53.458;14.540;2023-04-08T03:02:04;101361.15;;;3.65;100.00
68077;BME280;54866;53.458;14.540;2023-04-08T03:04:34;101363.68;;;3.67;100.00
68077;BME280;54866;53.458;14.540;2023-04-08T03:07:03;101362.39;;;3.69;100.00
68077;BME280;54866;53.458;14.540;2023-04-08T03:09:33;101363.23;;;3.70;100.00
68077;BME280;54866;53.458;14.540;2023-04-08T03:12:03;101364.30;;;3.69;100.00
68077;BME280;54866;53.458;14.540;2023-04-08T03:14:33;101368.38;;;3.71;100.00
68077;BME280;54866;53.458;14.540;2023-04-08T03:17:02;101372.73;;;3.72;100.00
68077;BME280;54866;53.458;14.540;2023-04-08T03:19:32;101366.52;;;3.70;100.00
68077;BME280;54866;53.458;14.540;2023-04-08T03:22:01;101369.61;;;3.71;100.00
68077;BME280;54866;53.458;14.540;2023-04-08T03:24:31;101368.19;;;3.72;100.00
68077;BME280;54866;53.458;14.540;2023-04-08T03:27:00;101365.77;;;3.71;100.00
68077;BME280;54866;53.458;14.540;2023-04-08T03:29:30;101360.21;;;3.71;100.00
68077;BME280;54866;53.458;14.540;2023-04-08T03:31:59;101359.86;;;3.71;100.00
68077;BME280;54866;53.458;14.540;2023-04-08T03:34:29;101359.71;;;3.70;100.00
68077;BME280;54866;53.458;14.540;2023-04-08T03:36:58;101358.86;;;3.70;100.00
68077;BME280;54866;53.458;14.540;2023-04-08T03:39:28;101360.73;;;3.70;100.00
68077;BME280;54866;53.458;14.540;2023-04-08T03:41:58;101365.60;;;3.71;100.00
68077;BME280;54866;53.458;14.540;2023-04-08T03:44:28;101370.33;;;3.71;100.00
68077;BME280;54866;53.458;14.540;2023-04-08T03:46:58;101376.08;;;3.71;100.00
68077;BME280;54866;53.458;14.540;2023-04-08T03:49:27;101379.21;;;3.71;100.00
68077;BME280;54866;53.458;14.540;2023-04-08T03:51:57;101380.63;;;3.70;100.00
68077;BME280;54866;53.458;14.540;2023-04-08T03:54:26;101382.86;;;3.71;100.00
68077;BME280;54866;53.458;14.540;2023-04-08T03:56:56;101384.59;;;3.71;100.00
68077;BME280;54866;53.458;14.540;2023-04-08T03:59:25;101383.58;;;3.71;100.00
68077;BME280;54866;53.458;14.540;2023-04-08T04:01:55;101380.12;;;3.70;100.00
68077;BME280;54866;53.458;14.540;2023-04-08T04:04:24;101380.81;;;3.70;100.00
68077;BME280;54866;53.458;14.540;2023-04-08T04:06:54;101382.54;;;3.70;100.00
68077;BME280;54866;53.458;14.540;2023-04-08T04:09:24;101384.13;;;3.70;100.00
68077;BME280;54866;53.458;14.540;2023-04-08T04:11:53;101388.73;;;3.68;100.00
68077;BME280;54866;53.458;14.540;2023-04-08T04:14:23;101398.93;;;3.70;100.00
68077;BME280;54866;53.458;14.540;2023-04-08T04:16:52;101400.63;;;3.71;100.00
68077;BME280;54866;53.458;14.540;2023-04-08T04:19:22;101406.77;;;3.70;100.00
68077;BME280;54866;53.458;14.540;2023-04-08T04:21:51;101410.09;;;3.70;100.00
68077;BME280;54866;53.458;14.540;2023-04-08T04:24:21;101416.34;;;3.71;100.00
68077;BME280;54866;53.458;14.540;2023-04-08T04:26:50;101415.78;;;3.71;100.00
68077;BME280;54866;53.458;14.540;2023-04-08T04:29:20;101417.87;;;3.72;100.00
68077;BME280;54866;53.458;14.540;2023-04-08T04:31:50;101412.48;;;3.71;100.00
68077;BME280;54866;53.458;14.540;2023-04-08T04:34:19;101415.98;;;3.71;100.00
68077;BME280;54866;53.458;14.540;2023-04-08T04:36:49;101419.67;;;3.70;100.00
68077;BME280;54866;53.458;14.540;2023-04-08T04:39:18;101422.11;;;3.70;100.00
68077;BME280;54866;53.458;14.540;2023-04-08T04:41:48;101428.31;;;3.72;100.00
68077;BME280;54866;53.458;14.540;2023-04-08T04:44:18;101429.62;;;3.74;100.00
68077;BME280;54866;53.458;14.540;2023-04-08T04:46:47;101435.84;;;3.75;100.00
68077;BME280;54866;53.458;14.540;2023-04-08T04:49:17;101437.38;;;3.76;100.00
68077;BME280;54866;53.458;14.540;2023-04-08T04:51:46;101440.51;;;3.76;100.00
68077;BME280;54866;53.458;14.540;2023-04-08T04:54:16;101435.41;;;3.77;100.00
68077;BME280;54866;53.458;14.540;2023-04-08T04:56:45;101441.95;;;3.79;100.00
68077;BME280;54866;53.458;14.540;2023-04-08T04:59:15;101433.55;;;3.81;100.00
68077;BME280;54866;53.458;14.540;2023-04-08T05:01:44;101441.42;;;3.84;100.00
68077;BME280;54866;53.458;14.540;2023-04-08T05:04:14;101443.09;;;3.86;100.00
68077;BME280;54866;53.458;14.540;2023-04-08T05:06:44;101442.55;;;3.87;100.00
68077;BME280;54866;53.458;14.540;2023-04-08T05:09:13;101447.05;;;3.92;100.00
68077;BME280;54866;53.458;14.540;2023-04-08T05:11:43;101447.79;;;3.96;100.00
68077;BME280;54866;53.458;14.540;2023-04-08T05:14:12;101447.13;;;4.00;100.00
68077;BME280;54866;53.458;14.540;2023-04-08T05:16:42;101447.58;;;4.01;100.00
68077;BME280;54866;53.458;14.540;2023-04-08T05:19:11;101453.65;;;4.02;100.00
68077;BME280;54866;53.458;14.540;2023-04-08T05:21:41;101457.73;;;4.05;100.00
68077;BME280;54866;53.458;14.540;2023-04-08T05:24:10;101454.84;;;4.07;100.00
68077;BME280;54866;53.458;14.540;2023-04-08T05:26:40;101460.84;;;4.10;100.00
68077;BME280;54866;53.458;14.540;2023-04-08T05:29:10;101463.87;;;4.12;100.00
68077;BME280;54866;53.458;14.540;2023-04-08T05:31:39;101465.65;;;4.15;100.00
68077;BME280;54866;53.458;14.540;2023-04-08T05:34:09;101468.03;;;4.18;100.00
68077;BME280;54866;53.458;14.540;2023-04-08T05:36:38;101464.89;;;4.18;100.00
68077;BME280;54866;53.458;14.540;2023-04-08T05:39:08;101466.34;;;4.21;100.00
68077;BME280;54866;53.458;14.540;2023-04-08T05:41:37;101469.31;;;4.25;100.00
68077;BME280;54866;53.458;14.540;2023-04-08T05:44:07;101469.09;;;4.31;100.00
68077;BME280;54866;53.458;14.540;2023-04-08T05:46:36;101474.30;;;4.35;100.00
68077;BME280;54866;53.458;14.540;2023-04-08T05:49:06;101471.70;;;4.40;100.00
68077;BME280;54866;53.458;14.540;2023-04-08T05:51:35;101476.13;;;4.46;100.00
68077;BME280;54866;53.458;14.540;2023-04-08T05:54:05;101470.11;;;4.53;100.00
68077;BME280;54866;53.458;14.540;2023-04-08T05:56:34;101473.49;;;4.60;100.00
68077;BME280;54866;53.458;14.540;2023-04-08T05:59:04;101478.10;;;4.66;100.00
68077;BME280;54866;53.458;14.540;2023-04-08T06:01:33;101479.29;;;4.71;100.00
68077;BME280;54866;53.458;14.540;2023-04-08T06:04:03;101481.84;;;4.81;100.00
68077;BME280;54866;53.458;14.540;2023-04-08T06:06:33;101489.29;;;4.92;100.00
68077;BME280;54866;53.458;14.540;2023-04-08T06:11:07;101489.09;;;5.17;100.00
68077;BME280;54866;53.458;14.540;2023-04-08T06:13:37;101495.45;;;5.27;100.00
68077;BME280;54866;53.458;14.540;2023-04-08T06:16:16;101504.21;;;5.31;100.00
68077;BME280;54866;53.458;14.540;2023-04-08T06:18:46;101510.02;;;5.26;100.00
68077;BME280;54866;53.458;14.540;2023-04-08T06:21:15;101512.99;;;5.26;100.00
68077;BME280;54866;53.458;14.540;2023-04-08T06:23:45;101515.84;;;5.28;100.00
68077;BME280;54866;53.458;14.540;2023-04-08T06:26:14;101514.03;;;5.33;100.00
68077;BME280;54866;53.458;14.540;2023-04-08T06:28:45;101518.15;;;5.35;100.00
68077;BME280;54866;53.458;14.540;2023-04-08T06:31:14;101517.93;;;5.32;100.00
68077;BME280;54866;53.458;14.540;2023-04-08T06:33:44;101522.86;;;5.31;100.00
68077;BME280;54866;53.458;14.540;2023-04-08T06:36:13;101520.91;;;5.32;100.00
68077;BME280;54866;53.458;14.540;2023-04-08T06:38:43;101528.50;;;5.34;100.00
68077;BME280;54866;53.458;14.540;2023-04-08T06:41:13;101536.08;;;5.37;100.00
68077;BME280;54866;53.458;14.540;2023-04-08T06:43:42;101538.39;;;5.36;100.00
68077;BME280;54866;53.458;14.540;2023-04-08T06:46:12;101543.33;;;5.40;100.00
68077;BME280;54866;53.458;14.540;2023-04-08T06:48:42;101542.60;;;5.44;100.00
68077;BME280;54866;53.458;14.540;2023-04-08T06:51:11;101545.35;;;5.53;100.00
68077;BME280;54866;53.458;14.540;2023-04-08T06:53:41;101544.94;;;5.62;100.00
68077;BME280;54866;53.458;14.540;2023-04-08T06:56:10;101546.48;;;5.70;100.00
68077;BME280;54866;53.458;14.540;2023-04-08T06:58:40;101547.87;;;5.83;100.00
68077;BME280;54866;53.458;14.540;2023-04-08T07:01:10;101548.10;;;5.94;100.00
68077;BME280;54866;53.458;14.540;2023-04-08T07:03:39;101550.89;;;6.05;100.00
68077;BME280;54866;53.458;14.540;2023-04-08T07:06:09;101554.05;;;6.10;100.00
68077;BME280;54866;53.458;14.540;2023-04-08T07:08:38;101556.73;;;6.16;100.00
68077;BME280;54866;53.458;14.540;2023-04-08T07:11:08;101559.72;;;6.23;100.00
68077;BME280;54866;53.458;14.540;2023-04-08T07:13:38;101560.02;;;6.24;100.00
68077;BME280;54866;53.458;14.540;2023-04-08T07:16:08;101557.05;;;6.13;100.00
68077;BME280;54866;53.458;14.540;2023-04-08T07:18:37;101560.63;;;6.11;100.00
68077;BME280;54866;53.458;14.540;2023-04-08T07:21:08;101561.52;;;6.07;100.00
68077;BME280;54866;53.458;14.540;2023-04-08T07:23:38;101562.31;;;6.08;100.00
68077;BME280;54866;53.458;14.540;2023-04-08T07:26:07;101560.41;;;6.19;100.00
68077;BME280;54866;53.458;14.540;2023-04-08T07:28:37;101561.29;;;6.30;100.00
68077;BME280;54866;53.458;14.540;2023-04-08T07:31:12;101564.58;;;6.32;100.00
68077;BME280;54866;53.458;14.540;2023-04-08T07:33:41;101570.63;;;6.33;100.00
68077;BME280;54866;53.458;14.540;2023-04-08T07:36:12;101574.64;;;6.48;100.00
68077;BME280;54866;53.458;14.540;2023-04-08T07:38:42;101570.58;;;6.64;100.00
68077;BME280;54866;53.458;14.540;2023-04-08T07:41:11;101570.79;;;6.78;100.00
68077;BME280;54866;53.458;14.540;2023-04-08T07:43:41;101579.01;;;6.89;100.00
68077;BME280;54866;53.458;14.540;2023-04-08T07:46:10;101579.42;;;6.99;100.00
68077;BME280;54866;53.458;14.540;2023-04-08T07:48:40;101582.40;;;7.02;100.00
68077;BME280;54866;53.458;14.540;2023-04-08T07:51:10;101589.10;;;7.12;100.00
68077;BME280;54866;53.458;14.540;2023-04-08T07:53:40;101587.74;;;7.18;100.00
68077;BME280;54866;53.458;14.540;2023-04-08T07:56:13;101585.40;;;7.19;100.00
68077;BME280;54866;53.458;14.540;2023-04-08T07:58:41;101587.64;;;7.20;100.00
68077;BME280;54866;53.458;14.540;2023-04-08T08:01:18;101589.41;;;7.26;100.00
68077;BME280;54866;53.458;14.540;2023-04-08T08:03:49;101590.64;;;7.30;100.00
68077;BME280;54866;53.458;14.540;2023-04-08T08:06:19;101597.99;;;7.30;100.00
68077;BME280;54866;53.458;14.540;2023-04-08T08:08:49;101595.25;;;7.29;100.00
68077;BME280;54866;53.458;14.540;2023-04-08T08:11:18;101595.33;;;7.31;100.00
68077;BME280;54866;53.458;14.540;2023-04-08T08:13:48;101593.71;;;7.32;99.85
68077;BME280;54866;53.458;14.540;2023-04-08T08:16:17;101594.69;;;7.30;99.59
68077;BME280;54866;53.458;14.540;2023-04-08T08:18:47;101592.34;;;7.38;99.90
68077;BME280;54866;53.458;14.540;2023-04-08T08:21:17;101597.88;;;7.46;100.00
68077;BME280;54866;53.458;14.540;2023-04-08T08:23:46;101599.95;;;7.57;100.00
68077;BME280;54866;53.458;14.540;2023-04-08T08:26:16;101609.14;;;7.69;99.71
68077;BME280;54866;53.458;14.540;2023-04-08T08:28:45;101607.10;;;7.71;98.60
68077;BME280;54866;53.458;14.540;2023-04-08T08:31:15;101608.30;;;7.66;97.95
68077;BME280;54866;53.458;14.540;2023-04-08T08:33:44;101604.91;;;7.67;98.64
68077;BME280;54866;53.458;14.540;2023-04-08T08:36:14;101609.75;;;7.74;98.59
68077;BME280;54866;53.458;14.540;2023-04-08T08:38:45;101613.96;;;7.78;98.16
68077;BME280;54866;53.458;14.540;2023-04-08T08:41:14;101616.27;;;7.77;97.79
68077;BME280;54866;53.458;14.540;2023-04-08T08:43:44;101620.96;;;7.68;96.48
68077;BME280;54866;53.458;14.540;2023-04-08T08:46:16;101621.13;;;7.62;96.49
68077;BME280;54866;53.458;14.540;2023-04-08T08:48:46;101623.08;;;7.51;96.59
68077;BME280;54866;53.458;14.540;2023-04-08T08:51:15;101624.06;;;7.41;97.17
68077;BME280;54866;53.458;14.540;2023-04-08T08:53:45;101628.64;;;7.38;97.57
68077;BME280;54866;53.458;14.540;2023-04-08T08:56:14;101633.23;;;7.40;98.15
68077;BME280;54866;53.458;14.540;2023-04-08T08:58:44;101634.31;;;7.50;98.43
68077;BME280;54866;53.458;14.540;2023-04-08T09:01:33;101633.39;;;7.58;97.79
68077;BME280;54866;53.458;14.540;2023-04-08T09:04:12;101634.73;;;7.60;97.76
68077;BME280;54866;53.458;14.540;2023-04-08T09:06:44;101639.47;;;7.70;97.77
68077;BME280;54866;53.458;14.540;2023-04-08T09:09:16;101643.73;;;7.86;97.96
68077;BME280;54866;53.458;14.540;2023-04-08T09:11:46;101642.73;;;8.05;97.08
68077;BME280;54866;53.458;14.540;2023-04-08T09:14:23;101642.35;;;8.22;96.94
68077;BME280;54866;53.458;14.540;2023-04-08T09:16:53;101644.96;;;8.39;97.08
68077;BME280;54866;53.458;14.540;2023-04-08T09:19:23;101645.89;;;8.39;94.22
68077;BME280;54866;53.458;14.540;2023-04-08T09:22:09;101648.98;;;8.37;94.62
68077;BME280;54866;53.458;14.540;2023-04-08T09:24:39;101653.16;;;8.30;94.28
68077;BME280;54866;53.458;14.540;2023-04-08T09:27:09;101654.75;;;8.26;95.03
68077;BME280;54866;53.458;14.540;2023-04-08T09:29:39;101655.44;;;8.30;95.10
68077;BME280;54866;53.458;14.540;2023-04-08T09:32:09;101661.55;;;8.24;93.73
68077;BME280;54866;53.458;14.540;2023-04-08T09:34:38;101664.42;;;8.13;94.14
68077;BME280;54866;53.458;14.540;2023-04-08T09:37:08;101667.31;;;8.11;94.86
68077;BME280;54866;53.458;14.540;2023-04-08T09:39:37;101666.79;;;8.14;95.02
68077;BME280;54866;53.458;14.540;2023-04-08T09:42:08;101668.92;;;8.18;94.79
68077;BME280;54866;53.458;14.540;2023-04-08T09:44:41;101669.13;;;8.24;94.97
68077;BME280;54866;53.458;14.540;2023-04-08T09:47:19;101667.73;;;8.37;95.42
68077;BME280;54866;53.458;14.540;2023-04-08T09:49:57;101665.56;;;8.51;95.26
68077;BME280;54866;53.458;14.540;2023-04-08T09:52:36;101668.73;;;8.61;94.84
68077;BME280;54866;53.458;14.540;2023-04-08T09:55:10;101672.64;;;8.66;93.88
68077;BME280;54866;53.458;14.540;2023-04-08T09:57:45;101675.84;;;8.62;93.57
68077;BME280;54866;53.458;14.540;2023-04-08T10:00:17;101675.17;;;8.62;93.91
68077;BME280;54866;53.458;14.540;2023-04-08T10:02:54;101673.19;;;8.60;93.44
68077;BME280;54866;53.458;14.540;2023-04-08T10:05:24;101671.39;;;8.54;93.68
68077;BME280;54866;53.458;14.540;2023-04-08T10:07:56;101673.61;;;8.49;93.79
68077;BME280;54866;53.458;14.540;2023-04-08T10:10:26;101673.22;;;8.43;93.07
68077;BME280;54866;53.458;14.540;2023-04-08T10:12:56;101675.31;;;8.33;93.00
68077;BME280;54866;53.458;14.540;2023-04-08T10:15:29;101675.13;;;8.26;93.80
68077;BME280;54866;53.458;14.540;2023-04-08T10:18:31;101677.42;;;8.26;93.84
68077;BME280;54866;53.458;14.540;2023-04-08T10:21:05;101676.13;;;8.27;94.20
68077;BME280;54866;53.458;14.540;2023-04-08T10:23:56;101680.16;;;8.30;94.29
68077;BME280;54866;53.458;14.540;2023-04-08T10:29:41;101679.86;;;8.40;94.31
68077;BME280;54866;53.458;14.540;2023-04-08T10:32:28;101683.57;;;8.46;94.66
68077;BME280;54866;53.458;14.540;2023-04-08T10:34:58;101683.73;;;8.54;94.47
68077;BME280;54866;53.458;14.540;2023-04-08T10:37:27;101686.05;;;8.56;93.53
68077;BME280;54866;53.458;14.540;2023-04-08T10:39:57;101689.52;;;8.50;93.52
68077;BME280;54866;53.458;14.540;2023-04-08T10:42:30;101689.49;;;8.44;93.39
68077;BME280;54866;53.458;14.540;2023-04-08T10:45:02;101685.21;;;8.36;93.47
68077;BME280;54866;53.458;14.540;2023-04-08T10:47:32;101686.04;;;8.39;94.21
68077;BME280;54866;53.458;14.540;2023-04-08T10:50:10;101690.34;;;8.48;94.07
68077;BME280;54866;53.458;14.540;2023-04-08T10:52:48;101687.38;;;8.51;93.49
68077;BME280;54866;53.458;14.540;2023-04-08T10:55:22;101688.98;;;8.50;93.19
68077;BME280;54866;53.458;14.540;2023-04-08T10:57:52;101690.02;;;8.57;93.24
68077;BME280;54866;53.458;14.540;2023-04-08T11:00:34;101689.11;;;8.68;93.28
68077;BME280;54866;53.458;14.540;2023-04-08T11:03:06;101693.81;;;8.78;92.57
68077;BME280;54866;53.458;14.540;2023-04-08T11:05:36;101685.39;;;8.84;91.84
68077;BME280;54866;53.458;14.540;2023-04-08T11:08:06;101686.64;;;8.81;91.14
68077;BME280;54866;53.458;14.540;2023-04-08T11:10:38;101687.03;;;8.80;91.24
68077;BME280;54866;53.458;14.540;2023-04-08T11:13:09;101685.19;;;8.81;91.60
68077;BME280;54866;53.458;14.540;2023-04-08T11:15:38;101683.80;;;8.84;91.40
68077;BME280;54866;53.458;14.540;2023-04-08T11:18:09;101685.84;;;8.92;91.16
68077;BME280;54866;53.458;14.540;2023-04-08T11:20:38;101682.87;;;8.98;91.41
68077;BME280;54866;53.458;14.540;2023-04-08T11:23:13;101684.36;;;9.06;91.05
68077;BME280;54866;53.458;14.540;2023-04-08T11:25:44;101688.91;;;9.12;91.22
68077;BME280;54866;53.458;14.540;2023-04-08T11:28:14;101685.34;;;9.19;90.85
68077;BME280;54866;53.458;14.540;2023-04-08T11:30:45;101689.81;;;9.18;90.36
68077;BME280;54866;53.458;14.540;2023-04-08T11:33:16;101688.16;;;9.22;90.12
68077;BME280;54866;53.458;14.540;2023-04-08T11:35:49;101690.75;;;9.23;89.86
68077;BME280;54866;53.458;14.540;2023-04-08T11:38:22;101691.19;;;9.28;89.91
68077;BME280;54866;53.458;14.540;2023-04-08T11:40:56;101691.11;;;9.35;89.78
68077;BME280;54866;53.458;14.540;2023-04-08T11:43:26;101693.96;;;9.34;89.23
68077;BME280;54866;53.458;14.540;2023-04-08T11:45:56;101695.07;;;9.33;88.80
68077;BME280;54866;53.458;14.540;2023-04-08T11:48:25;101698.02;;;9.28;88.66
68077;BME280;54866;53.458;14.540;2023-04-08T11:51:04;101697.30;;;9.23;88.56
68077;BME280;54866;53.458;14.540;2023-04-08T11:53:36;101696.37;;;9.30;89.11
68077;BME280;54866;53.458;14.540;2023-04-08T11:56:18;101694.95;;;9.45;89.20
68077;BME280;54866;53.458;14.540;2023-04-08T11:58:48;101689.45;;;9.70;89.10
68077;BME280;54866;53.458;14.540;2023-04-08T12:01:19;101692.89;;;9.98;88.44
68077;BME280;54866;53.458;14.540;2023-04-08T12:04:00;101692.10;;;10.32;87.16
68077;BME280;54866;53.458;14.540;2023-04-08T12:06:30;101687.20;;;10.74;86.09
68077;BME280;54866;53.458;14.540;2023-04-08T12:08:59;101683.05;;;11.14;85.52
68077;BME280;54866;53.458;14.540;2023-04-08T12:11:29;101679.90;;;11.56;84.24
68077;BME280;54866;53.458;14.540;2023-04-08T12:13:58;101676.61;;;12.05;83.74
68077;BME280;54866;53.458;14.540;2023-04-08T12:16:28;101673.95;;;12.41;81.26
68077;BME280;54866;53.458;14.540;2023-04-08T12:18:58;101674.14;;;12.66;79.72
68077;BME280;54866;53.458;14.540;2023-04-08T12:21:28;101668.63;;;13.03;79.21
68077;BME280;54866;53.458;14.540;2023-04-08T12:23:57;101671.63;;;13.51;77.71
68077;BME280;54866;53.458;14.540;2023-04-08T12:26:27;101673.23;;;14.25;73.56
68077;BME280;54866;53.458;14.540;2023-04-08T12:28:57;101671.17;;;15.17;70.16
68077;BME280;54866;53.458;14.540;2023-04-08T12:31:26;101668.93;;;16.03;64.55
68077;BME280;54866;53.458;14.540;2023-04-08T12:33:56;101661.00;;;16.52;60.91
68077;BME280;54866;53.458;14.540;2023-04-08T12:36:25;101662.18;;;17.14;61.66
68077;BME280;54866;53.458;14.540;2023-04-08T12:38:55;101659.23;;;17.83;58.94
68077;BME280;54866;53.458;14.540;2023-04-08T12:41:25;101660.86;;;17.75;59.11
68077;BME280;54866;53.458;14.540;2023-04-08T12:43:54;101660.38;;;17.44;58.25
68077;BME280;54866;53.458;14.540;2023-04-08T12:46:24;101661.89;;;17.04;58.96
68077;BME280;54866;53.458;14.540;2023-04-08T12:48:53;101661.23;;;16.65;59.39
68077;BME280;54866;53.458;14.540;2023-04-08T12:51:23;101659.70;;;16.26;60.11
68077;BME280;54866;53.458;14.540;2023-04-08T12:53:53;101660.09;;;15.92;60.84
68077;BME280;54866;53.458;14.540;2023-04-08T12:56:23;101657.14;;;15.77;62.08
68077;BME280;54866;53.458;14.540;2023-04-08T12:58:52;101652.24;;;15.46;60.43
68077;BME280;54866;53.458;14.540;2023-04-08T13:01:23;101653.95;;;15.56;61.62
68077;BME280;54866;53.458;14.540;2023-04-08T13:03:53;101649.66;;;15.90;62.26
68077;BME280;54866;53.458;14.540;2023-04-08T13:06:23;101644.44;;;16.29;59.90